sensor_id;sensor_type;location;lat;lon;timestamp;P1;durP1;ratioP1;P2;durP2;ratioP2
69822;SDS011;57119;52.516;13.508;2023-05-07T00:01:13;16.03;;;9.43;;
69822;SDS011;57119;52.516;13.508;2023-05-07T00:03:39;17.80;;;10.40;;
69822;SDS011;57119;52.516;13.508;2023-05-07T00:06:04;16.20;;;10.50;;
69822;SDS011;57119;52.516;13.508;2023-05-07T00:08:30;17.70;;;10.23;;
69822;SDS011;57119;52.516;13.508;2023-05-07T00:10:55;17.87;;;10.43;;
69822;SDS011;57119;52.516;13.508;2023-05-07T00:13:20;17.57;;;9.77;;
69822;SDS011;57119;52.516;13.508;2023-05-07T00:15:46;17.77;;;9.80;;
69822;SDS011;57119;52.516;13.508;2023-05-07T00:18:11;16.00;;;9.47;;
69822;SDS011;57119;52.516;13.508;2023-05-07T00:20:37;15.23;;;9.35;;
69822;SDS011;57119;52.516;13.508;2023-05-07T00:23:02;14.80;;;9.50;;
69822;SDS011;57119;52.516;13.508;2023-05-07T00:25:27;16.27;;;9.20;;
69822;SDS011;57119;52.516;13.508;2023-05-07T00:27:53;15.03;;;9.23;;
69822;SDS011;57119;52.516;13.508;2023-05-07T00:30:18;17.13;;;10.20;;
69822;SDS011;57119;52.516;13.508;2023-05-07T00:32:44;17.77;;;10.32;;
69822;SDS011;57119;52.516;13.508;2023-05-07T00:35:10;19.70;;;10.37;;
69822;SDS011;57119;52.516;13.508;2023-05-07T00:37:36;17.70;;;9.93;;
69822;SDS011;57119;52.516;13.508;2023-05-07T00:40:01;18.90;;;11.07;;
69822;SDS011;57119;52.516;13.508;2023-05-07T00:42:29;16.38;;;10.55;;
69822;SDS011;57119;52.516;13.508;2023-05-07T00:44:57;16.75;;;10.40;;
69822;SDS011;57119;52.516;13.508;2023-05-07T00:47:23;17.93;;;10.10;;
69822;SDS011;57119;52.516;13.508;2023-05-07T00:49:50;15.90;;;9.65;;
69822;SDS011;57119;52.516;13.508;2023-05-07T00:52:16;15.95;;;10.52;;
69822;SDS011;57119;52.516;13.508;2023-05-07T00:54:42;17.10;;;10.70;;
69822;SDS011;57119;52.516;13.508;2023-05-07T00:57:09;18.35;;;11.13;;
69822;SDS011;57119;52.516;13.508;2023-05-07T00:59:34;15.98;;;10.23;;
69822;SDS011;57119;52.516;13.508;2023-05-07T01:02:00;16.60;;;9.73;;
69822;SDS011;57119;52.516;13.508;2023-05-07T01:04:26;17.42;;;11.00;;
69822;SDS011;57119;52.516;13.508;2023-05-07T01:06:52;17.33;;;10.80;;
69822;SDS011;57119;52.516;13.508;2023-05-07T01:09:21;16.70;;;9.68;;
69822;SDS011;57119;52.516;13.508;2023-05-07T01:11:48;17.00;;;11.35;;
69822;SDS011;57119;52.516;13.508;2023-05-07T01:14:14;17.48;;;10.32;;
69822;SDS011;57119;52.516;13.508;2023-05-07T01:16:40;17.63;;;10.70;;
69822;SDS011;57119;52.516;13.508;2023-05-07T01:19:06;16.90;;;9.82;;
69822;SDS011;57119;52.516;13.508;2023-05-07T01:21:33;14.93;;;9.40;;
69822;SDS011;57119;52.516;13.508;2023-05-07T01:24:02;15.60;;;8.77;;
69822;SDS011;57119;52.516;13.508;2023-05-07T01:26:28;15.27;;;9.43;;
69822;SDS011;57119;52.516;13.508;2023-05-07T01:28:53;15.60;;;10.43;;
69822;SDS011;57119;52.516;13.508;2023-05-07T01:31:18;16.97;;;10.13;;
69822;SDS011;57119;52.516;13.508;2023-05-07T01:33:44;15.57;;;9.68;;
69822;SDS011;57119;52.516;13.508;2023-05-07T01:36:13;15.07;;;8.95;;
69822;SDS011;57119;52.516;13.508;2023-05-07T01:38:39;18.33;;;10.20;;
69822;SDS011;57119;52.516;13.508;2023-05-07T01:41:06;15.85;;;9.48;;
69822;SDS011;57119;52.516;13.508;2023-05-07T01:43:32;16.13;;;9.35;;
69822;SDS011;57119;52.516;13.508;2023-05-07T01:45:58;13.75;;;9.85;;
69822;SDS011;57119;52.516;13.508;2023-05-07T01:48:25;16.27;;;9.33;;
69822;SDS011;57119;52.516;13.508;2023-05-07T01:50:51;13.73;;;8.52;;
69822;SDS011;57119;52.516;13.508;2023-05-07T01:53:16;14.98;;;9.07;;
69822;SDS011;57119;52.516;13.508;2023-05-07T01:55:42;14.70;;;10.17;;
69822;SDS011;57119;52.516;13.508;2023-05-07T01:58:07;19.37;;;9.63;;
69822;SDS011;57119;52.516;13.508;2023-05-07T02:00:33;13.90;;;8.87;;
69822;SDS011;57119;52.516;13.508;2023-05-07T02:02:59;15.32;;;9.57;;
69822;SDS011;57119;52.516;13.508;2023-05-07T02:05:24;15.60;;;9.10;;
69822;SDS011;57119;52.516;13.508;2023-05-07T02:07:50;19.20;;;9.30;;
69822;SDS011;57119;52.516;13.508;2023-05-07T02:10:15;15.10;;;9.70;;
69822;SDS011;57119;52.516;13.508;2023-05-07T02:12:41;14.50;;;9.07;;
69822;SDS011;57119;52.516;13.508;2023-05-07T02:15:07;15.68;;;8.85;;
69822;SDS011;57119;52.516;13.508;2023-05-07T02:17:33;15.80;;;9.23;;
69822;SDS011;57119;52.516;13.508;2023-05-07T02:19:58;16.42;;;9.32;;
69822;SDS011;57119;52.516;13.508;2023-05-07T02:22:24;14.93;;;8.93;;
69822;SDS011;57119;52.516;13.508;2023-05-07T02:24:50;16.73;;;8.90;;
69822;SDS011;57119;52.516;13.508;2023-05-07T02:27:16;14.77;;;9.47;;
69822;SDS011;57119;52.516;13.508;2023-05-07T02:29:41;15.75;;;9.75;;
69822;SDS011;57119;52.516;13.508;2023-05-07T02:32:06;15.23;;;9.43;;
69822;SDS011;57119;52.516;13.508;2023-05-07T02:34:32;16.03;;;9.90;;
69822;SDS011;57119;52.516;13.508;2023-05-07T02:36:57;15.23;;;9.77;;
69822;SDS011;57119;52.516;13.508;2023-05-07T02:39:23;15.40;;;8.73;;
69822;SDS011;57119;52.516;13.508;2023-05-07T02:41:48;14.73;;;9.03;;
69822;SDS011;57119;52.516;13.508;2023-05-07T02:44:14;14.87;;;8.40;;
69822;SDS011;57119;52.516;13.508;2023-05-07T02:46:39;14.17;;;8.57;;
69822;SDS011;57119;52.516;13.508;2023-05-07T02:49:05;14.55;;;8.25;;
69822;SDS011;57119;52.516;13.508;2023-05-07T02:51:30;14.67;;;8.37;;
69822;SDS011;57119;52.516;13.508;2023-05-07T02:53:56;16.35;;;9.32;;
69822;SDS011;57119;52.516;13.508;2023-05-07T02:56:22;17.80;;;10.13;;
69822;SDS011;57119;52.516;13.508;2023-05-07T02:58:47;14.53;;;8.40;;
69822;SDS011;57119;52.516;13.508;2023-05-07T03:01:12;16.77;;;9.02;;
69822;SDS011;57119;52.516;13.508;2023-05-07T03:03:39;15.63;;;8.73;;
69822;SDS011;57119;52.516;13.508;2023-05-07T03:06:05;13.60;;;8.30;;
69822;SDS011;57119;52.516;13.508;2023-05-07T03:08:31;15.85;;;9.13;;
69822;SDS011;57119;52.516;13.508;2023-05-07T03:10:57;17.20;;;9.27;;
69822;SDS011;57119;52.516;13.508;2023-05-07T03:13:22;15.37;;;8.13;;
69822;SDS011;57119;52.516;13.508;2023-05-07T03:15:48;15.20;;;8.83;;
69822;SDS011;57119;52.516;13.508;2023-05-07T03:18:13;15.97;;;8.83;;
69822;SDS011;57119;52.516;13.508;2023-05-07T03:20:39;15.68;;;8.57;;
69822;SDS011;57119;52.516;13.508;2023-05-07T03:23:04;15.73;;;8.50;;
69822;SDS011;57119;52.516;13.508;2023-05-07T03:25:30;22.00;;;9.17;;
69822;SDS011;57119;52.516;13.508;2023-05-07T03:27:56;15.05;;;9.25;;
69822;SDS011;57119;52.516;13.508;2023-05-07T03:30:22;15.97;;;8.90;;
69822;SDS011;57119;52.516;13.508;2023-05-07T03:32:47;14.15;;;8.45;;
69822;SDS011;57119;52.516;13.508;2023-05-07T03:35:13;16.10;;;8.67;;
69822;SDS011;57119;52.516;13.508;2023-05-07T03:37:38;14.18;;;8.40;;
69822;SDS011;57119;52.516;13.508;2023-05-07T03:40:05;18.13;;;9.50;;
69822;SDS011;57119;52.516;13.508;2023-05-07T03:42:31;13.63;;;8.63;;
69822;SDS011;57119;52.516;13.508;2023-05-07T03:44:56;15.03;;;8.50;;
69822;SDS011;57119;52.516;13.508;2023-05-07T03:47:22;12.77;;;7.97;;
69822;SDS011;57119;52.516;13.508;2023-05-07T03:49:47;13.33;;;7.90;;
69822;SDS011;57119;52.516;13.508;2023-05-07T03:52:14;13.77;;;8.57;;
69822;SDS011;57119;52.516;13.508;2023-05-07T03:54:39;17.10;;;8.27;;
69822;SDS011;57119;52.516;13.508;2023-05-07T03:57:05;15.93;;;8.17;;
69822;SDS011;57119;52.516;13.508;2023-05-07T03:59:30;14.10;;;8.10;;
69822;SDS011;57119;52.516;13.508;2023-05-07T04:01:56;13.83;;;7.90;;
69822;SDS011;57119;52.516;13.508;2023-05-07T04:04:21;15.00;;;8.53;;
69822;SDS011;57119;52.516;13.508;2023-05-07T04:06:46;13.53;;;7.70;;
69822;SDS011;57119;52.516;13.508;2023-05-07T04:09:12;13.73;;;7.80;;
69822;SDS011;57119;52.516;13.508;2023-05-07T04:11:37;12.90;;;6.90;;
69822;SDS011;57119;52.516;13.508;2023-05-07T04:14:05;13.82;;;7.63;;
69822;SDS011;57119;52.516;13.508;2023-05-07T04:16:30;14.03;;;7.90;;
69822;SDS011;57119;52.516;13.508;2023-05-07T04:18:56;13.40;;;7.73;;
69822;SDS011;57119;52.516;13.508;2023-05-07T04:21:21;11.60;;;7.20;;
69822;SDS011;57119;52.516;13.508;2023-05-07T04:23:47;13.07;;;7.25;;
69822;SDS011;57119;52.516;13.508;2023-05-07T04:26:13;13.23;;;7.47;;
69822;SDS011;57119;52.516;13.508;2023-05-07T04:28:39;11.60;;;7.05;;
69822;SDS011;57119;52.516;13.508;2023-05-07T04:31:05;12.70;;;7.18;;
69822;SDS011;57119;52.516;13.508;2023-05-07T04:33:31;11.20;;;6.50;;
69822;SDS011;57119;52.516;13.508;2023-05-07T04:35:57;12.15;;;6.82;;
69822;SDS011;57119;52.516;13.508;2023-05-07T04:38:22;12.53;;;7.17;;
69822;SDS011;57119;52.516;13.508;2023-05-07T04:40:51;16.13;;;7.20;;
69822;SDS011;57119;52.516;13.508;2023-05-07T04:43:16;11.90;;;7.07;;
69822;SDS011;57119;52.516;13.508;2023-05-07T04:45:41;11.77;;;7.00;;
69822;SDS011;57119;52.516;13.508;2023-05-07T04:48:08;13.30;;;6.93;;
69822;SDS011;57119;52.516;13.508;2023-05-07T04:50:34;11.45;;;6.22;;
69822;SDS011;57119;52.516;13.508;2023-05-07T04:53:00;13.50;;;7.20;;
69822;SDS011;57119;52.516;13.508;2023-05-07T04:55:26;11.85;;;6.38;;
69822;SDS011;57119;52.516;13.508;2023-05-07T04:57:51;10.10;;;6.23;;
69822;SDS011;57119;52.516;13.508;2023-05-07T05:00:18;11.13;;;6.40;;
69822;SDS011;57119;52.516;13.508;2023-05-07T05:02:44;11.38;;;6.32;;
69822;SDS011;57119;52.516;13.508;2023-05-07T05:05:10;10.43;;;6.40;;
69822;SDS011;57119;52.516;13.508;2023-05-07T05:07:36;12.00;;;6.80;;
69822;SDS011;57119;52.516;13.508;2023-05-07T05:10:02;9.90;;;5.75;;
69822;SDS011;57119;52.516;13.508;2023-05-07T05:12:28;10.87;;;6.37;;
69822;SDS011;57119;52.516;13.508;2023-05-07T05:14:55;11.73;;;6.35;;
69822;SDS011;57119;52.516;13.508;2023-05-07T05:17:20;10.00;;;6.50;;
69822;SDS011;57119;52.516;13.508;2023-05-07T05:19:45;11.85;;;6.28;;
69822;SDS011;57119;52.516;13.508;2023-05-07T05:22:11;11.73;;;6.80;;
69822;SDS011;57119;52.516;13.508;2023-05-07T05:24:36;12.63;;;6.70;;
69822;SDS011;57119;52.516;13.508;2023-05-07T05:27:02;11.03;;;6.03;;
69822;SDS011;57119;52.516;13.508;2023-05-07T05:29:27;13.90;;;6.22;;
69822;SDS011;57119;52.516;13.508;2023-05-07T05:31:53;12.50;;;6.53;;
69822;SDS011;57119;52.516;13.508;2023-05-07T05:34:18;12.33;;;6.70;;
69822;SDS011;57119;52.516;13.508;2023-05-07T05:36:47;11.55;;;6.60;;
69822;SDS011;57119;52.516;13.508;2023-05-07T05:39:12;11.85;;;6.45;;
69822;SDS011;57119;52.516;13.508;2023-05-07T05:41:38;10.67;;;6.63;;
69822;SDS011;57119;52.516;13.508;2023-05-07T05:44:03;11.87;;;6.67;;
69822;SDS011;57119;52.516;13.508;2023-05-07T05:46:29;10.47;;;6.73;;
69822;SDS011;57119;52.516;13.508;2023-05-07T05:48:54;12.63;;;6.55;;
69822;SDS011;57119;52.516;13.508;2023-05-07T05:51:20;10.83;;;6.30;;
69822;SDS011;57119;52.516;13.508;2023-05-07T05:53:46;11.05;;;6.60;;
69822;SDS011;57119;52.516;13.508;2023-05-07T05:56:11;13.43;;;6.47;;
69822;SDS011;57119;52.516;13.508;2023-05-07T05:58:37;12.57;;;7.07;;
69822;SDS011;57119;52.516;13.508;2023-05-07T06:01:02;12.83;;;7.13;;
69822;SDS011;57119;52.516;13.508;2023-05-07T06:03:28;11.80;;;6.70;;
69822;SDS011;57119;52.516;13.508;2023-05-07T06:05:53;12.55;;;6.88;;
69822;SDS011;57119;52.516;13.508;2023-05-07T06:08:19;12.60;;;6.63;;
69822;SDS011;57119;52.516;13.508;2023-05-07T06:10:44;12.00;;;6.20;;
69822;SDS011;57119;52.516;13.508;2023-05-07T06:13:10;12.02;;;6.22;;
69822;SDS011;57119;52.516;13.508;2023-05-07T06:15:35;11.40;;;6.30;;
69822;SDS011;57119;52.516;13.508;2023-05-07T06:18:01;11.13;;;5.77;;
69822;SDS011;57119;52.516;13.508;2023-05-07T06:20:30;10.85;;;5.95;;
69822;SDS011;57119;52.516;13.508;2023-05-07T06:22:56;11.20;;;6.22;;
69822;SDS011;57119;52.516;13.508;2023-05-07T06:25:21;10.43;;;6.57;;
69822;SDS011;57119;52.516;13.508;2023-05-07T06:27:46;11.27;;;6.07;;
69822;SDS011;57119;52.516;13.508;2023-05-07T06:30:12;12.70;;;6.40;;
69822;SDS011;57119;52.516;13.508;2023-05-07T06:32:37;10.63;;;5.97;;
69822;SDS011;57119;52.516;13.508;2023-05-07T06:35:02;13.27;;;6.27;;
69822;SDS011;57119;52.516;13.508;2023-05-07T06:37:28;8.82;;;5.22;;
69822;SDS011;57119;52.516;13.508;2023-05-07T06:39:53;10.83;;;5.73;;
69822;SDS011;57119;52.516;13.508;2023-05-07T06:42:19;9.30;;;5.20;;
69822;SDS011;57119;52.516;13.508;2023-05-07T06:44:44;10.87;;;5.70;;
69822;SDS011;57119;52.516;13.508;2023-05-07T06:47:09;9.68;;;5.40;;
69822;SDS011;57119;52.516;13.508;2023-05-07T06:49:35;10.27;;;4.90;;
69822;SDS011;57119;52.516;13.508;2023-05-07T06:52:01;10.07;;;5.27;;
69822;SDS011;57119;52.516;13.508;2023-05-07T06:54:26;10.47;;;6.20;;
69822;SDS011;57119;52.516;13.508;2023-05-07T06:56:51;9.90;;;5.67;;
69822;SDS011;57119;52.516;13.508;2023-05-07T06:59:17;9.07;;;5.43;;
69822;SDS011;57119;52.516;13.508;2023-05-07T07:01:42;9.53;;;4.80;;
69822;SDS011;57119;52.516;13.508;2023-05-07T07:04:07;8.93;;;5.07;;
69822;SDS011;57119;52.516;13.508;2023-05-07T07:06:33;9.23;;;5.50;;
69822;SDS011;57119;52.516;13.508;2023-05-07T07:08:59;10.35;;;5.47;;
69822;SDS011;57119;52.516;13.508;2023-05-07T07:11:24;9.13;;;4.88;;
69822;SDS011;57119;52.516;13.508;2023-05-07T07:13:50;9.00;;;4.13;;
69822;SDS011;57119;52.516;13.508;2023-05-07T07:16:15;8.50;;;4.80;;
69822;SDS011;57119;52.516;13.508;2023-05-07T07:18:41;8.75;;;4.28;;
69822;SDS011;57119;52.516;13.508;2023-05-07T07:21:07;10.47;;;4.27;;
69822;SDS011;57119;52.516;13.508;2023-05-07T07:23:32;7.80;;;4.40;;
69822;SDS011;57119;52.516;13.508;2023-05-07T07:25:57;7.77;;;3.50;;
69822;SDS011;57119;52.516;13.508;2023-05-07T07:28:23;10.48;;;4.40;;
69822;SDS011;57119;52.516;13.508;2023-05-07T07:30:48;9.00;;;4.53;;
69822;SDS011;57119;52.516;13.508;2023-05-07T07:33:14;8.90;;;4.88;;
69822;SDS011;57119;52.516;13.508;2023-05-07T07:35:40;9.83;;;4.70;;
69822;SDS011;57119;52.516;13.508;2023-05-07T07:38:05;7.60;;;4.30;;
69822;SDS011;57119;52.516;13.508;2023-05-07T07:40:31;8.67;;;4.40;;
69822;SDS011;57119;52.516;13.508;2023-05-07T07:42:56;8.10;;;4.20;;
69822;SDS011;57119;52.516;13.508;2023-05-07T07:45:22;9.57;;;5.03;;
69822;SDS011;57119;52.516;13.508;2023-05-07T07:47:48;7.63;;;4.03;;
69822;SDS011;57119;52.516;13.508;2023-05-07T07:50:13;8.02;;;4.15;;
69822;SDS011;57119;52.516;13.508;2023-05-07T07:52:39;6.63;;;4.00;;
69822;SDS011;57119;52.516;13.508;2023-05-07T07:55:04;9.10;;;4.73;;
69822;SDS011;57119;52.516;13.508;2023-05-07T07:57:30;9.18;;;5.05;;
69822;SDS011;57119;52.516;13.508;2023-05-07T07:59:56;6.80;;;3.63;;
69822;SDS011;57119;52.516;13.508;2023-05-07T08:02:21;8.02;;;4.30;;
69822;SDS011;57119;52.516;13.508;2023-05-07T08:04:47;7.47;;;3.37;;
69822;SDS011;57119;52.516;13.508;2023-05-07T08:07:12;7.70;;;3.50;;
69822;SDS011;57119;52.516;13.508;2023-05-07T08:09:38;5.85;;;3.40;;
69822;SDS011;57119;52.516;13.508;2023-05-07T08:12:04;7.60;;;3.47;;
69822;SDS011;57119;52.516;13.508;2023-05-07T08:14:31;8.15;;;3.35;;
69822;SDS011;57119;52.516;13.508;2023-05-07T08:16:56;7.57;;;3.57;;
69822;SDS011;57119;52.516;13.508;2023-05-07T08:19:21;6.90;;;3.50;;
69822;SDS011;57119;52.516;13.508;2023-05-07T08:21:47;6.20;;;3.43;;
69822;SDS011;57119;52.516;13.508;2023-05-07T08:24:13;8.30;;;3.65;;
69822;SDS011;57119;52.516;13.508;2023-05-07T08:26:39;6.30;;;3.33;;
69822;SDS011;57119;52.516;13.508;2023-05-07T08:29:05;7.83;;;3.60;;
69822;SDS011;57119;52.516;13.508;2023-05-07T08:31:30;7.93;;;3.83;;
69822;SDS011;57119;52.516;13.508;2023-05-07T08:33:57;5.95;;;3.90;;
69822;SDS011;57119;52.516;13.508;2023-05-07T08:36:23;7.10;;;4.00;;
69822;SDS011;57119;52.516;13.508;2023-05-07T08:38:48;6.60;;;2.80;;
69822;SDS011;57119;52.516;13.508;2023-05-07T08:41:14;6.67;;;3.53;;
69822;SDS011;57119;52.516;13.508;2023-05-07T08:43:41;5.35;;;2.60;;
69822;SDS011;57119;52.516;13.508;2023-05-07T08:46:07;7.03;;;3.17;;
69822;SDS011;57119;52.516;13.508;2023-05-07T08:48:34;6.53;;;3.10;;
69822;SDS011;57119;52.516;13.508;2023-05-07T08:51:00;6.18;;;2.78;;
69822;SDS011;57119;52.516;13.508;2023-05-07T08:53:26;6.87;;;3.60;;
69822;SDS011;57119;52.516;13.508;2023-05-07T08:55:52;7.20;;;3.90;;
69822;SDS011;57119;52.516;13.508;2023-05-07T08:58:18;6.28;;;3.45;;
69822;SDS011;57119;52.516;13.508;2023-05-07T09:00:43;6.33;;;2.90;;
69822;SDS011;57119;52.516;13.508;2023-05-07T09:03:09;6.67;;;3.30;;
69822;SDS011;57119;52.516;13.508;2023-05-07T09:05:37;6.25;;;3.53;;
69822;SDS011;57119;52.516;13.508;2023-05-07T09:08:04;7.57;;;3.85;;
69822;SDS011;57119;52.516;13.508;2023-05-07T09:10:32;7.22;;;3.47;;
69822;SDS011;57119;52.516;13.508;2023-05-07T09:12:58;5.60;;;2.90;;
69822;SDS011;57119;52.516;13.508;2023-05-07T09:15:24;7.45;;;4.00;;
69822;SDS011;57119;52.516;13.508;2023-05-07T09:17:51;6.25;;;3.25;;
69822;SDS011;57119;52.516;13.508;2023-05-07T09:20:16;7.13;;;3.97;;
69822;SDS011;57119;52.516;13.508;2023-05-07T09:22:41;6.10;;;3.10;;
69822;SDS011;57119;52.516;13.508;2023-05-07T09:25:09;6.13;;;3.53;;
69822;SDS011;57119;52.516;13.508;2023-05-07T09:27:34;5.93;;;3.13;;
69822;SDS011;57119;52.516;13.508;2023-05-07T09:30:03;6.60;;;3.25;;
69822;SDS011;57119;52.516;13.508;2023-05-07T09:32:29;6.90;;;3.10;;
69822;SDS011;57119;52.516;13.508;2023-05-07T09:34:56;6.20;;;3.00;;
69822;SDS011;57119;52.516;13.508;2023-05-07T09:37:21;6.20;;;3.63;;
69822;SDS011;57119;52.516;13.508;2023-05-07T09:39:48;6.05;;;3.13;;
69822;SDS011;57119;52.516;13.508;2023-05-07T09:42:14;7.47;;;3.33;;
69822;SDS011;57119;52.516;13.508;2023-05-07T09:44:40;8.43;;;3.23;;
69822;SDS011;57119;52.516;13.508;2023-05-07T09:47:08;6.22;;;3.17;;
69822;SDS011;57119;52.516;13.508;2023-05-07T09:49:34;5.70;;;3.07;;
69822;SDS011;57119;52.516;13.508;2023-05-07T09:52:05;7.05;;;2.90;;
69822;SDS011;57119;52.516;13.508;2023-05-07T09:54:33;4.63;;;2.35;;
69822;SDS011;57119;52.516;13.508;2023-05-07T09:57:00;6.70;;;3.27;;
69822;SDS011;57119;52.516;13.508;2023-05-07T09:59:27;4.93;;;2.22;;
69822;SDS011;57119;52.516;13.508;2023-05-07T10:01:56;5.97;;;2.35;;
69822;SDS011;57119;52.516;13.508;2023-05-07T10:04:22;5.95;;;2.10;;
69822;SDS011;57119;52.516;13.508;2023-05-07T10:06:49;5.97;;;2.60;;
69822;SDS011;57119;52.516;13.508;2023-05-07T10:09:15;6.10;;;2.20;;
69822;SDS011;57119;52.516;13.508;2023-05-07T10:11:41;6.68;;;2.72;;
69822;SDS011;57119;52.516;13.508;2023-05-07T10:14:08;5.32;;;2.08;;
69822;SDS011;57119;52.516;13.508;2023-05-07T10:16:35;4.77;;;2.07;;
69822;SDS011;57119;52.516;13.508;2023-05-07T10:19:04;4.97;;;2.20;;
69822;SDS011;57119;52.516;13.508;2023-05-07T10:21:30;4.28;;;2.03;;
69822;SDS011;57119;52.516;13.508;2023-05-07T10:24:04;5.65;;;2.10;;
69822;SDS011;57119;52.516;13.508;2023-05-07T10:26:33;5.30;;;1.90;;
69822;SDS011;57119;52.516;13.508;2023-05-07T10:29:15;4.93;;;2.47;;
69822;SDS011;57119;52.516;13.508;2023-05-07T10:31:48;5.25;;;2.72;;
69822;SDS011;57119;52.516;13.508;2023-05-07T10:34:28;4.82;;;2.47;;
69822;SDS011;57119;52.516;13.508;2023-05-07T10:36:59;4.40;;;1.85;;
69822;SDS011;57119;52.516;13.508;2023-05-07T10:39:25;4.50;;;2.13;;
69822;SDS011;57119;52.516;13.508;2023-05-07T10:41:52;5.00;;;2.50;;
69822;SDS011;57119;52.516;13.508;2023-05-07T10:44:30;5.07;;;2.35;;
69822;SDS011;57119;52.516;13.508;2023-05-07T10:49:35;5.87;;;2.40;;
69822;SDS011;57119;52.516;13.508;2023-05-07T10:52:21;6.22;;;3.22;;
69822;SDS011;57119;52.516;13.508;2023-05-07T10:57:40;5.35;;;2.10;;
69822;SDS011;57119;52.516;13.508;2023-05-07T11:00:55;5.53;;;2.20;;
69822;SDS011;57119;52.516;13.508;2023-05-07T11:05:26;5.90;;;2.60;;
69822;SDS011;57119;52.516;13.508;2023-05-07T11:08:03;5.57;;;2.90;;
69822;SDS011;57119;52.516;13.508;2023-05-07T11:13:15;5.10;;;2.45;;
69822;SDS011;57119;52.516;13.508;2023-05-07T11:15:41;5.40;;;2.72;;
69822;SDS011;57119;52.516;13.508;2023-05-07T11:18:09;6.43;;;2.42;;
69822;SDS011;57119;52.516;13.508;2023-05-07T11:28:26;5.82;;;2.38;;
69822;SDS011;57119;52.516;13.508;2023-05-07T11:30:53;5.40;;;2.60;;
69822;SDS011;57119;52.516;13.508;2023-05-07T11:33:19;6.15;;;2.72;;
69822;SDS011;57119;52.516;13.508;2023-05-07T11:35:45;8.43;;;3.47;;
69822;SDS011;57119;52.516;13.508;2023-05-07T11:38:11;5.78;;;2.97;;
69822;SDS011;57119;52.516;13.508;2023-05-07T11:40:50;5.88;;;2.17;;
69822;SDS011;57119;52.516;13.508;2023-05-07T11:43:16;5.60;;;2.63;;
69822;SDS011;57119;52.516;13.508;2023-05-07T11:45:42;6.53;;;3.10;;
69822;SDS011;57119;52.516;13.508;2023-05-07T11:48:07;4.97;;;2.70;;
69822;SDS011;57119;52.516;13.508;2023-05-07T11:50:32;5.50;;;2.80;;
69822;SDS011;57119;52.516;13.508;2023-05-07T11:52:58;5.33;;;2.40;;
69822;SDS011;57119;52.516;13.508;2023-05-07T11:55:24;5.83;;;2.97;;
69822;SDS011;57119;52.516;13.508;2023-05-07T11:57:50;5.40;;;2.90;;
69822;SDS011;57119;52.516;13.508;2023-05-07T12:00:16;7.45;;;3.17;;
69822;SDS011;57119;52.516;13.508;2023-05-07T12:02:42;4.90;;;2.17;;
69822;SDS011;57119;52.516;13.508;2023-05-07T12:05:08;5.85;;;2.97;;
69822;SDS011;57119;52.516;13.508;2023-05-07T12:07:34;4.50;;;2.50;;
69822;SDS011;57119;52.516;13.508;2023-05-07T12:10:03;4.90;;;2.10;;
69822;SDS011;57119;52.516;13.508;2023-05-07T12:12:29;6.60;;;3.03;;
69822;SDS011;57119;52.516;13.508;2023-05-07T12:14:55;4.73;;;2.47;;
69822;SDS011;57119;52.516;13.508;2023-05-07T12:17:20;6.40;;;3.50;;
69822;SDS011;57119;52.516;13.508;2023-05-07T12:19:46;5.07;;;2.45;;
69822;SDS011;57119;52.516;13.508;2023-05-07T12:22:12;4.60;;;2.40;;
69822;SDS011;57119;52.516;13.508;2023-05-07T12:24:42;4.97;;;2.15;;
69822;SDS011;57119;52.516;13.508;2023-05-07T12:27:11;4.85;;;2.85;;
69822;SDS011;57119;52.516;13.508;2023-05-07T12:29:38;5.07;;;2.08;;
69822;SDS011;57119;52.516;13.508;2023-05-07T12:32:06;6.68;;;2.35;;
69822;SDS011;57119;52.516;13.508;2023-05-07T12:34:32;6.20;;;3.33;;
69822;SDS011;57119;52.516;13.508;2023-05-07T12:36:57;4.97;;;2.33;;
69822;SDS011;57119;52.516;13.508;2023-05-07T12:39:27;4.18;;;1.92;;
69822;SDS011;57119;52.516;13.508;2023-05-07T12:41:54;6.35;;;2.10;;
69822;SDS011;57119;52.516;13.508;2023-05-07T12:44:23;5.10;;;1.90;;
69822;SDS011;57119;52.516;13.508;2023-05-07T12:46:50;5.45;;;2.78;;
69822;SDS011;57119;52.516;13.508;2023-05-07T12:49:16;4.88;;;2.58;;
69822;SDS011;57119;52.516;13.508;2023-05-07T12:51:43;4.25;;;2.35;;
69822;SDS011;57119;52.516;13.508;2023-05-07T12:54:08;5.23;;;2.93;;
69822;SDS011;57119;52.516;13.508;2023-05-07T12:56:37;6.90;;;3.00;;
69822;SDS011;57119;52.516;13.508;2023-05-07T12:59:03;5.88;;;2.20;;
69822;SDS011;57119;52.516;13.508;2023-05-07T13:01:35;4.82;;;2.20;;
69822;SDS011;57119;52.516;13.508;2023-05-07T13:04:01;4.60;;;1.77;;
69822;SDS011;57119;52.516;13.508;2023-05-07T13:06:29;6.43;;;2.58;;
69822;SDS011;57119;52.516;13.508;2023-05-07T13:08:56;3.85;;;1.75;;
69822;SDS011;57119;52.516;13.508;2023-05-07T13:11:21;4.53;;;2.17;;
69822;SDS011;57119;52.516;13.508;2023-05-07T13:13:47;5.22;;;3.00;;
69822;SDS011;57119;52.516;13.508;2023-05-07T13:16:13;6.13;;;3.47;;
69822;SDS011;57119;52.516;13.508;2023-05-07T13:18:39;5.33;;;2.53;;
69822;SDS011;57119;52.516;13.508;2023-05-07T13:21:05;4.68;;;1.95;;
69822;SDS011;57119;52.516;13.508;2023-05-07T13:23:31;4.10;;;1.60;;
69822;SDS011;57119;52.516;13.508;2023-05-07T13:25:56;5.47;;;1.90;;
69822;SDS011;57119;52.516;13.508;2023-05-07T13:28:23;4.80;;;1.90;;
69822;SDS011;57119;52.516;13.508;2023-05-07T13:30:49;5.07;;;2.60;;
69822;SDS011;57119;52.516;13.508;2023-05-07T13:33:16;4.43;;;2.03;;
69822;SDS011;57119;52.516;13.508;2023-05-07T13:35:42;4.90;;;1.83;;
69822;SDS011;57119;52.516;13.508;2023-05-07T13:38:07;4.43;;;2.23;;
69822;SDS011;57119;52.516;13.508;2023-05-07T13:40:33;5.47;;;2.80;;
69822;SDS011;57119;52.516;13.508;2023-05-07T13:42:58;5.80;;;1.85;;
69822;SDS011;57119;52.516;13.508;2023-05-07T13:45:26;4.97;;;1.60;;
69822;SDS011;57119;52.516;13.508;2023-05-07T13:47:54;6.28;;;2.90;;
69822;SDS011;57119;52.516;13.508;2023-05-07T13:50:20;4.93;;;1.90;;
69822;SDS011;57119;52.516;13.508;2023-05-07T13:52:45;4.90;;;2.23;;
69822;SDS011;57119;52.516;13.508;2023-05-07T13:55:15;5.68;;;1.80;;
69822;SDS011;57119;52.516;13.508;2023-05-07T13:57:45;5.35;;;2.83;;
69822;SDS011;57119;52.516;13.508;2023-05-07T14:00:11;4.60;;;2.10;;
69822;SDS011;57119;52.516;13.508;2023-05-07T14:02:37;6.40;;;3.38;;
69822;SDS011;57119;52.516;13.508;2023-05-07T14:05:03;5.30;;;2.13;;
69822;SDS011;57119;52.516;13.508;2023-05-07T14:07:29;5.25;;;2.10;;
69822;SDS011;57119;52.516;13.508;2023-05-07T14:09:54;4.60;;;1.60;;
69822;SDS011;57119;52.516;13.508;2023-05-07T14:12:20;4.60;;;1.90;;
69822;SDS011;57119;52.516;13.508;2023-05-07T14:14:45;4.53;;;2.37;;
69822;SDS011;57119;52.516;13.508;2023-05-07T14:17:11;5.07;;;2.83;;
69822;SDS011;57119;52.516;13.508;2023-05-07T14:19:37;4.77;;;3.07;;
69822;SDS011;57119;52.516;13.508;2023-05-07T14:22:02;7.03;;;3.13;;
69822;SDS011;57119;52.516;13.508;2023-05-07T14:24:28;5.00;;;1.73;;
69822;SDS011;57119;52.516;13.508;2023-05-07T14:26:53;7.60;;;2.80;;
69822;SDS011;57119;52.516;13.508;2023-05-07T14:29:19;5.00;;;2.67;;
69822;SDS011;57119;52.516;13.508;2023-05-07T14:31:44;6.07;;;2.73;;
69822;SDS011;57119;52.516;13.508;2023-05-07T14:34:10;5.57;;;2.90;;
69822;SDS011;57119;52.516;13.508;2023-05-07T14:36:36;4.78;;;2.63;;
69822;SDS011;57119;52.516;13.508;2023-05-07T14:39:02;5.17;;;3.47;;
69822;SDS011;57119;52.516;13.508;2023-05-07T14:41:29;5.55;;;3.35;;